Time;durP1;ratioP1;P1;durP2;ratioP2;P2;SDS_P1;SDS_P2;PMS_P1;PMS_P2;Temp;Humidity;BMP_temperature;BMP_pressure;BME280_temperature;BME280_humidity;BME280_pressure;Samples;Min_cycle;Max_cycle;Signal;HPM_P1;HPM_P2
2023/10/30 00:02:12;;;;;;;;;;;10.80;99.90;;;;;;8356067;28;19925;-68
2023/10/30 00:06:14;;;;;;;;;;;10.80;99.90;;;;;;8352305;28;19936;-68
2023/10/30 00:10:15;;;;;;;;;;;10.80;99.90;;;;;;8355497;28;19925;-68
2023/10/30 00:14:17;;;;;;;;;;;10.90;99.90;;;;;;8356137;28;19951;-69
2023/10/30 00:18:19;;;;;;;;;;;10.90;99.90;;;;;;8349076;28;19925;-68
2023/10/30 00:22:20;;;;;;;;;;;10.90;99.90;;;;;;8355792;28;19964;-68
2023/10/30 00:26:22;;;;;;;;;;;10.90;99.90;;;;;;8353325;28;19936;-68
2023/10/30 00:30:24;;;;;;;;;;;10.90;99.90;;;;;;8354362;28;19948;-68
2023/10/30 00:34:25;;;;;;;;;;;10.90;99.90;;;;;;8356354;28;19925;-68
2023/10/30 00:38:27;;;;;;;;;;;10.90;99.90;;;;;;8361865;28;19929;-69
2023/10/30 00:42:29;;;;;;;;;;;10.80;99.90;;;;;;8362731;28;20411;-68
2023/10/30 00:46:30;;;;;;;;;;;10.90;99.90;;;;;;8359236;28;19924;-69
2023/10/30 00:50:32;;;;;;;;;;;10.90;99.90;;;;;;8361414;28;19925;-69
2023/10/30 00:54:34;;;;;;;;;;;10.90;99.90;;;;;;8357987;28;19979;-69
2023/10/30 00:58:36;;;;;;;;;;;10.90;99.90;;;;;;8358125;28;19936;-68
2023/10/30 01:02:39;;;;;;;;;;;10.80;99.90;;;;;;8357285;28;19925;-69
2023/10/30 01:06:41;;;;;;;;;;;10.80;99.90;;;;;;8338764;28;19972;-69
2023/10/30 01:10:42;;;;;;;;;;;10.70;99.90;;;;;;8337269;28;19929;-68
2023/10/30 01:14:44;;;;;;;;;;;10.70;99.90;;;;;;8334257;28;20372;-68
2023/10/30 01:18:46;;;;;;;;;;;10.60;99.90;;;;;;8355338;28;20402;-69
2023/10/30 01:22:47;;;;;;;;;;;10.50;99.90;;;;;;8358485;28;19936;-68
2023/10/30 01:26:49;;;;;;;;;;;10.50;99.90;;;;;;8354504;28;19929;-69
2023/10/30 01:30:50;;;;;;;;;;;10.50;99.90;;;;;;8360137;28;19924;-68
2023/10/30 01:34:52;;;;;;;;;;;10.50;99.90;;;;;;8359110;28;19933;-68
2023/10/30 01:38:54;;;;;;;;;;;10.50;99.90;;;;;;8357080;28;19991;-68
2023/10/30 01:42:55;;;;;;;;;;;10.50;99.90;;;;;;8360218;28;19925;-69
2023/10/30 01:46:57;;;;;;;;;;;10.50;99.90;;;;;;8355799;28;19939;-68
2023/10/30 01:50:59;;;;;;;;;;;10.50;99.90;;;;;;8361863;28;19925;-68
2023/10/30 01:55:01;;;;;;;;;;;10.50;99.90;;;;;;8357148;28;19936;-69
2023/10/30 01:59:03;;;;;;;;;;;10.50;99.90;;;;;;8346438;28;19928;-68
2023/10/30 02:03:04;;;;;;;;;;;10.60;99.90;;;;;;8332847;28;19924;-68
2023/10/30 02:07:07;;;;;;;;;;;10.60;99.90;;;;;;8357850;28;20351;-69
2023/10/30 02:11:08;;;;;;;;;;;10.60;99.90;;;;;;8357696;28;19925;-69
2023/10/30 02:15:10;;;;;;;;;;;10.70;99.90;;;;;;8335397;28;20386;-69
2023/10/30 02:19:16;;;;;;;;;;;10.70;99.90;;;;;;8357066;28;19940;-68
2023/10/30 02:23:18;;;;;;;;;;;10.70;99.90;;;;;;8358497;28;20364;-69
2023/10/30 02:27:20;;;;;;;;;;;10.70;99.90;;;;;;8345499;28;19928;-68
2023/10/30 02:31:23;;;;;;;;;;;10.70;99.90;;;;;;8342110;28;19929;-68
2023/10/30 02:35:25;;;;;;;;;;;10.60;99.90;;;;;;8338095;28;19932;-69
2023/10/30 02:39:32;;;;;;;;;;;10.60;99.90;;;;;;8344011;28;19974;-69
2023/10/30 02:43:34;;;;;;;;;;;10.70;99.90;;;;;;8342655;28;20169;-68
2023/10/30 02:47:36;;;;;;;;;;;10.70;99.90;;;;;;8339413;28;19980;-68
2023/10/30 02:51:37;;;;;;;;;;;10.60;99.90;;;;;;8338689;28;19935;-68
2023/10/30 02:55:39;;;;;;;;;;;10.60;99.90;;;;;;8344712;28;20172;-68
2023/10/30 02:59:41;;;;;;;;;;;10.60;99.90;;;;;;8341859;28;19983;-68
2023/10/30 03:03:42;;;;;;;;;;;10.60;99.90;;;;;;8353330;28;19929;-68
2023/10/30 03:07:44;;;;;;;;;;;10.50;99.90;;;;;;8355983;28;19932;-68
2023/10/30 03:11:46;;;;;;;;;;;10.60;99.90;;;;;;8355245;28;19978;-69
2023/10/30 03:15:48;;;;;;;;;;;10.60;99.90;;;;;;8363885;28;19929;-68
2023/10/30 03:19:49;;;;;;;;;;;10.60;99.90;;;;;;8353820;28;19924;-68
2023/10/30 03:23:51;;;;;;;;;;;10.60;99.90;;;;;;8348487;28;20011;-69
2023/10/30 03:27:53;;;;;;;;;;;10.60;99.90;;;;;;8353743;28;19933;-68
2023/10/30 03:31:55;;;;;;;;;;;10.70;99.90;;;;;;8339942;28;19967;-68
2023/10/30 03:35:56;;;;;;;;;;;10.70;99.90;;;;;;8336613;28;19968;-68
2023/10/30 03:39:58;;;;;;;;;;;10.70;99.90;;;;;;8340111;28;19933;-68
2023/10/30 03:44:00;;;;;;;;;;;10.70;99.90;;;;;;8340828;28;19975;-68
2023/10/30 03:48:01;;;;;;;;;;;10.70;99.90;;;;;;8321379;28;20357;-68
2023/10/30 03:52:03;;;;;;;;;;;10.70;99.90;;;;;;8340693;28;20643;-68
2023/10/30 03:56:08;;;;;;;;;;;10.70;99.90;;;;;;8335246;28;19925;-68
2023/10/30 04:00:10;;;;;;;;;;;10.70;99.90;;;;;;8321967;28;19935;-69
2023/10/30 04:04:12;;;;;;;;;;;10.70;99.90;;;;;;8341624;28;20451;-68
2023/10/30 04:08:13;;;;;;;;;;;10.70;99.90;;;;;;8354886;28;19933;-69
2023/10/30 04:12:15;;;;;;;;;;;10.70;99.90;;;;;;8358847;28;19948;-69
2023/10/30 04:16:17;;;;;;;;;;;10.70;99.90;;;;;;8359792;28;19932;-68
2023/10/30 04:20:18;;;;;;;;;;;10.60;99.90;;;;;;8361268;28;19975;-69
2023/10/30 04:24:20;;;;;;;;;;;10.60;99.90;;;;;;8351383;28;19925;-68
2023/10/30 04:28:22;;;;;;;;;;;10.60;99.90;;;;;;8358125;28;19928;-69
2023/10/30 04:32:23;;;;;;;;;;;10.60;99.90;;;;;;8350497;28;20027;-69
2023/10/30 04:36:25;;;;;;;;;;;10.60;99.90;;;;;;8343675;28;19935;-69
2023/10/30 04:40:27;;;;;;;;;;;10.60;99.90;;;;;;8345570;28;19924;-69
2023/10/30 04:44:28;;;;;;;;;;;10.50;99.90;;;;;;8346790;28;19925;-69
2023/10/30 04:48:30;;;;;;;;;;;10.60;99.90;;;;;;8350203;28;19940;-69
2023/10/30 04:52:32;;;;;;;;;;;10.60;99.90;;;;;;8357498;28;19925;-69
2023/10/30 04:56:34;;;;;;;;;;;10.60;99.90;;;;;;8358571;28;19924;-69
2023/10/30 05:00:35;;;;;;;;;;;10.60;99.90;;;;;;8360111;28;20299;-69
2023/10/30 05:04:37;;;;;;;;;;;10.60;99.90;;;;;;8359916;28;20267;-69
2023/10/30 05:08:39;;;;;;;;;;;10.60;99.90;;;;;;8342539;28;19932;-69
2023/10/30 05:12:40;;;;;;;;;;;10.50;99.90;;;;;;8358801;28;20284;-68
2023/10/30 05:16:42;;;;;;;;;;;10.50;99.90;;;;;;8358151;28;19925;-68
2023/10/30 05:20:44;;;;;;;;;;;10.50;99.90;;;;;;8359741;28;19931;-69
2023/10/30 05:24:45;;;;;;;;;;;10.40;99.90;;;;;;8362478;28;19932;-68
2023/10/30 05:28:47;;;;;;;;;;;10.40;99.90;;;;;;8353658;28;19925;-68
2023/10/30 05:32:49;;;;;;;;;;;10.40;99.90;;;;;;8355415;28;19925;-69
2023/10/30 05:36:51;;;;;;;;;;;10.40;99.90;;;;;;8357646;28;19983;-69
2023/10/30 05:40:52;;;;;;;;;;;10.40;99.90;;;;;;8338846;28;19935;-69
2023/10/30 05:44:54;;;;;;;;;;;10.40;99.90;;;;;;8356143;28;19956;-69
2023/10/30 05:48:56;;;;;;;;;;;10.40;99.90;;;;;;8332566;28;20103;-68
2023/10/30 05:52:58;;;;;;;;;;;10.40;99.90;;;;;;8358427;28;19983;-69
2023/10/30 05:57:00;;;;;;;;;;;10.40;99.90;;;;;;8354530;28;20377;-69
2023/10/30 06:01:01;;;;;;;;;;;10.40;99.90;;;;;;8357220;28;19944;-69
2023/10/30 06:05:06;;;;;;;;;;;10.40;99.90;;;;;;8332495;28;19925;-69
2023/10/30 06:09:08;;;;;;;;;;;10.40;99.90;;;;;;8353183;28;19968;-69
2023/10/30 06:13:09;;;;;;;;;;;10.40;99.90;;;;;;8358050;28;20145;-69
2023/10/30 06:17:11;;;;;;;;;;;10.40;99.90;;;;;;8352597;28;19928;-69
2023/10/30 06:21:20;;;;;;;;;;;10.40;99.90;;;;;;8357079;28;19925;-69
2023/10/30 06:25:21;;;;;;;;;;;10.50;99.90;;;;;;8357210;28;20331;-69
2023/10/30 06:29:23;;;;;;;;;;;10.50;99.90;;;;;;8358167;28;19925;-69
2023/10/30 06:33:25;;;;;;;;;;;10.50;99.90;;;;;;8356477;28;19935;-69
2023/10/30 06:37:27;;;;;;;;;;;10.50;99.90;;;;;;8355634;28;19931;-69
2023/10/30 06:41:28;;;;;;;;;;;10.50;99.90;;;;;;8358969;28;19951;-69
2023/10/30 06:45:30;;;;;;;;;;;10.50;99.90;;;;;;8358125;28;19925;-68
2023/10/30 06:49:32;;;;;;;;;;;10.50;99.90;;;;;;8356653;28;20406;-69
2023/10/30 06:53:33;;;;;;;;;;;10.40;99.90;;;;;;8358851;28;19951;-69
2023/10/30 06:57:35;;;;;;;;;;;10.50;99.90;;;;;;8356157;28;19979;-69
2023/10/30 07:01:42;;;;;;;;;;;10.50;99.90;;;;;;8356887;28;19971;-69
2023/10/30 07:05:44;;;;;;;;;;;10.50;99.90;;;;;;8357191;28;20361;-69
2023/10/30 07:09:45;;;;;;;;;;;10.60;99.90;;;;;;8355190;28;19925;-69
2023/10/30 07:13:47;;;;;;;;;;;10.60;99.90;;;;;;8356700;28;19982;-69
2023/10/30 07:17:48;;;;;;;;;;;10.60;99.90;;;;;;8337883;28;20368;-69
2023/10/30 07:21:51;;;;;;;;;;;10.70;99.90;;;;;;8338772;28;20280;-69
2023/10/30 07:25:53;;;;;;;;;;;10.70;99.90;;;;;;8353426;28;19929;-69
2023/10/30 07:29:54;;;;;;;;;;;10.80;99.90;;;;;;8353671;28;20456;-69
2023/10/30 07:33:58;;;;;;;;;;;10.90;99.90;;;;;;8357724;28;20399;-69
2023/10/30 07:37:59;;;;;;;;;;;10.90;99.90;;;;;;8331549;28;19928;-69
2023/10/30 07:42:01;;;;;;;;;;;11.00;99.90;;;;;;8355642;28;19925;-69
2023/10/30 07:46:03;;;;;;;;;;;11.10;99.90;;;;;;8356531;28;19925;-69
2023/10/30 07:50:05;;;;;;;;;;;11.20;99.90;;;;;;8354582;28;20395;-69
2023/10/30 07:54:06;;;;;;;;;;;11.30;99.90;;;;;;8339666;28;19925;-68
2023/10/30 07:58:09;;;;;;;;;;;11.40;99.90;;;;;;8356439;28;19947;-69
2023/10/30 08:02:11;;;;;;;;;;;11.60;99.90;;;;;;8334454;28;19978;-69
2023/10/30 08:06:13;;;;;;;;;;;11.60;99.90;;;;;;8356595;28;20402;-69
2023/10/30 08:10:14;;;;;;;;;;;11.60;99.90;;;;;;8352615;28;19931;-69
2023/10/30 08:14:16;;;;;;;;;;;11.70;99.90;;;;;;8357088;28;20481;-68
2023/10/30 08:18:19;;;;;;;;;;;11.70;99.90;;;;;;8354745;28;19925;-69
2023/10/30 08:22:21;;;;;;;;;;;11.80;99.90;;;;;;8348762;28;19933;-69
2023/10/30 08:26:23;;;;;;;;;;;11.80;99.90;;;;;;8356758;28;20134;-69
2023/10/30 08:30:25;;;;;;;;;;;11.90;99.90;;;;;;8352665;28;19951;-69
2023/10/30 08:34:26;;;;;;;;;;;11.90;99.90;;;;;;8335320;28;19928;-68
2023/10/30 08:38:28;;;;;;;;;;;12.00;99.90;;;;;;8355454;28;20252;-69
2023/10/30 08:42:30;;;;;;;;;;;12.00;99.90;;;;;;8350765;28;19929;-68
2023/10/30 08:46:33;;;;;;;;;;;11.90;99.90;;;;;;8355653;28;19929;-69
2023/10/30 08:50:35;;;;;;;;;;;12.00;99.90;;;;;;8353303;28;19925;-69
2023/10/30 08:54:37;;;;;;;;;;;12.00;99.90;;;;;;8355566;28;20293;-68
2023/10/30 08:58:39;;;;;;;;;;;12.00;99.90;;;;;;8355302;28;19925;-69
2023/10/30 09:02:40;;;;;;;;;;;12.00;99.90;;;;;;8354502;28;19952;-69
2023/10/30 09:06:42;;;;;;;;;;;12.00;99.90;;;;;;8360597;28;20241;-68
2023/10/30 09:10:44;;;;;;;;;;;12.00;99.90;;;;;;8358922;28;20324;-69
2023/10/30 09:14:46;;;;;;;;;;;12.00;99.90;;;;;;8358487;28;19932;-69
2023/10/30 09:18:47;;;;;;;;;;;12.10;99.90;;;;;;8358990;28;20558;-69
2023/10/30 09:22:49;;;;;;;;;;;12.10;99.90;;;;;;8332203;28;20281;-69
2023/10/30 09:26:51;;;;;;;;;;;12.10;99.90;;;;;;8359840;28;19924;-68
2023/10/30 09:30:52;;;;;;;;;;;12.20;99.90;;;;;;8357310;28;20019;-69
2023/10/30 09:34:55;;;;;;;;;;;12.20;99.90;;;;;;8360132;28;19928;-69
2023/10/30 09:38:57;;;;;;;;;;;12.20;99.90;;;;;;8358747;28;20334;-69
2023/10/30 09:42:59;;;;;;;;;;;12.20;99.90;;;;;;8358988;28;19929;-69
2023/10/30 09:47:02;;;;;;;;;;;12.30;99.90;;;;;;8359310;28;19929;-69
2023/10/30 09:51:06;;;;;;;;;;;12.30;99.90;;;;;;8337741;28;19928;-69
2023/10/30 09:55:11;;;;;;;;;;;12.40;99.90;;;;;;8358865;28;20300;-69
2023/10/30 09:59:16;;;;;;;;;;;12.50;99.90;;;;;;8358779;28;20336;-69
2023/10/30 10:03:17;;;;;;;;;;;12.50;99.90;;;;;;8354579;28;19947;-68
2023/10/30 10:07:21;;;;;;;;;;;12.60;99.90;;;;;;8359476;28;19925;-68
2023/10/30 10:11:23;;;;;;;;;;;12.80;99.90;;;;;;8359203;28;20003;-68
2023/10/30 10:15:24;;;;;;;;;;;12.90;99.90;;;;;;8358543;28;19931;-69
2023/10/30 10:19:26;;;;;;;;;;;13.00;99.90;;;;;;8359240;28;19925;-69
2023/10/30 10:23:31;;;;;;;;;;;13.00;99.90;;;;;;8350796;28;19955;-68
2023/10/30 10:27:33;;;;;;;;;;;13.00;99.90;;;;;;8351068;28;20056;-69
2023/10/30 10:31:39;;;;;;;;;;;13.00;99.90;;;;;;8350704;28;19924;-69
2023/10/30 10:35:41;;;;;;;;;;;13.10;99.90;;;;;;8349001;28;20265;-69
2023/10/30 10:39:49;;;;;;;;;;;13.10;99.90;;;;;;8336482;28;19932;-69
2023/10/30 10:43:52;;;;;;;;;;;13.10;99.90;;;;;;8348439;28;19932;-69
2023/10/30 10:47:54;;;;;;;;;;;13.10;99.90;;;;;;8347221;28;20370;-68
2023/10/30 10:51:56;;;;;;;;;;;13.20;99.90;;;;;;8347945;28;19935;-69
2023/10/30 10:56:04;;;;;;;;;;;13.30;99.90;;;;;;8331441;28;20256;-69
2023/10/30 11:00:09;;;;;;;;;;;13.30;99.90;;;;;;8342753;28;20023;-69
2023/10/30 11:04:11;;;;;;;;;;;13.40;99.90;;;;;;8346282;28;19924;-69
2023/10/30 11:08:31;;;;;;;;;;;13.50;99.90;;;;;;8346802;28;19933;-69
2023/10/30 11:12:51;;;;;;;;;;;13.50;99.90;;;;;;8334341;28;19924;-69
2023/10/30 11:16:56;;;;;;;;;;;13.60;99.90;;;;;;8346432;28;20505;-69
2023/10/30 11:21:14;;;;;;;;;;;13.60;99.90;;;;;;8348797;28;19932;-69
2023/10/30 11:25:34;;;;;;;;;;;13.60;99.90;;;;;;8346966;28;19925;-69
2023/10/30 11:29:52;;;;;;;;;;;13.60;99.90;;;;;;8327145;28;19960;-69
2023/10/30 11:34:05;;;;;;;;;;;13.60;99.90;;;;;;8349115;28;19933;-69
2023/10/30 11:38:08;;;;;;;;;;;13.60;99.90;;;;;;8345697;28;19932;-68
2023/10/30 11:42:32;;;;;;;;;;;13.70;99.90;;;;;;8349378;28;19925;-69
2023/10/30 11:46:38;;;;;;;;;;;13.70;99.90;;;;;;8330219;28;19936;-69
2023/10/30 11:50:44;;;;;;;;;;;13.70;99.90;;;;;;8346566;28;19932;-69
2023/10/30 11:54:48;;;;;;;;;;;13.80;99.90;;;;;;8343960;28;19928;-69
2023/10/30 11:58:50;;;;;;;;;;;13.80;99.90;;;;;;8364311;28;19925;-69
2023/10/30 12:02:52;;;;;;;;;;;13.80;99.90;;;;;;8346950;28;19924;-68
2023/10/30 12:06:54;;;;;;;;;;;13.80;99.90;;;;;;8346722;28;19932;-69
2023/10/30 12:10:56;;;;;;;;;;;13.70;99.90;;;;;;8330065;28;19951;-69
2023/10/30 12:14:58;;;;;;;;;;;13.70;99.90;;;;;;8345039;28;19951;-70
2023/10/30 12:19:01;;;;;;;;;;;13.70;99.90;;;;;;8348240;28;19932;-69
2023/10/30 12:23:02;;;;;;;;;;;13.70;99.90;;;;;;8346117;28;19929;-68
2023/10/30 12:27:04;;;;;;;;;;;13.60;99.90;;;;;;8348033;28;20376;-69
2023/10/30 12:31:19;;;;;;;;;;;13.60;99.90;;;;;;8348878;28;19947;-68
2023/10/30 12:35:21;;;;;;;;;;;13.50;99.90;;;;;;8333241;28;19925;-69
2023/10/30 12:39:24;;;;;;;;;;;13.50;99.90;;;;;;8355266;28;20356;-69
2023/10/30 12:43:26;;;;;;;;;;;13.40;99.90;;;;;;8353056;28;20406;-69
2023/10/30 12:47:27;;;;;;;;;;;13.40;99.90;;;;;;8337191;28;19924;-69
2023/10/30 12:51:31;;;;;;;;;;;13.40;99.90;;;;;;8355308;28;19932;-69
2023/10/30 12:55:33;;;;;;;;;;;13.40;99.90;;;;;;8363900;28;20375;-69
2023/10/30 12:59:35;;;;;;;;;;;13.40;99.90;;;;;;8355423;28;19980;-69
2023/10/30 13:03:36;;;;;;;;;;;13.40;99.90;;;;;;8351860;28;19976;-69
2023/10/30 13:07:40;;;;;;;;;;;13.30;99.90;;;;;;8349263;28;20063;-69
2023/10/30 13:11:42;;;;;;;;;;;13.30;99.90;;;;;;8354224;28;19936;-69
2023/10/30 13:15:45;;;;;;;;;;;13.30;99.90;;;;;;8351763;28;19932;-70
2023/10/30 13:19:47;;;;;;;;;;;13.40;99.90;;;;;;8349522;28;19925;-69
2023/10/30 13:23:48;;;;;;;;;;;13.40;99.90;;;;;;8352210;28;19975;-69
2023/10/30 13:27:50;;;;;;;;;;;13.50;99.90;;;;;;8352470;28;19936;-69
2023/10/30 13:31:52;;;;;;;;;;;13.50;99.90;;;;;;8352166;28;20334;-69
2023/10/30 13:35:53;;;;;;;;;;;13.60;99.90;;;;;;8347865;28;19971;-69
2023/10/30 13:39:55;;;;;;;;;;;13.60;99.90;;;;;;8351555;28;19943;-69
2023/10/30 13:43:57;;;;;;;;;;;13.60;99.90;;;;;;8320042;28;20470;-69
2023/10/30 13:47:59;;;;;;;;;;;13.60;99.90;;;;;;8351222;28;19929;-69
2023/10/30 13:52:01;;;;;;;;;;;13.70;99.90;;;;;;8352911;28;20015;-69
2023/10/30 13:56:03;;;;;;;;;;;13.70;99.90;;;;;;8351548;28;19925;-69
2023/10/30 14:00:07;;;;;;;;;;;13.70;99.90;;;;;;8349705;28;19925;-69
2023/10/30 14:04:10;;;;;;;;;;;13.70;99.90;;;;;;8334545;28;19925;-69
2023/10/30 14:08:13;;;;;;;;;;;13.80;99.90;;;;;;8348942;28;19929;-69
2023/10/30 14:12:18;;;;;;;;;;;13.80;99.90;;;;;;8333648;28;20376;-70
2023/10/30 14:16:20;;;;;;;;;;;13.80;99.90;;;;;;8347249;28;19929;-69
2023/10/30 14:20:21;;;;;;;;;;;13.80;99.90;;;;;;8351110;28;19972;-69
2023/10/30 14:24:23;;;;;;;;;;;13.80;99.90;;;;;;8333338;28;20690;-70
2023/10/30 14:28:25;;;;;;;;;;;13.80;99.90;;;;;;8346207;28;20415;-69
2023/10/30 14:32:26;;;;;;;;;;;13.80;99.90;;;;;;8351836;28;19925;-69
2023/10/30 14:36:28;;;;;;;;;;;13.90;99.90;;;;;;8345462;28;19929;-70
2023/10/30 14:40:30;;;;;;;;;;;13.80;99.90;;;;;;8350224;28;19967;-69
2023/10/30 14:44:31;;;;;;;;;;;13.80;99.90;;;;;;8348361;28;19933;-69
2023/10/30 14:48:33;;;;;;;;;;;13.80;99.90;;;;;;8344925;28;19951;-69
2023/10/30 14:52:35;;;;;;;;;;;13.80;99.90;;;;;;8346590;28;20399;-69
2023/10/30 14:56:36;;;;;;;;;;;13.80;99.90;;;;;;8342365;28;19979;-70
2023/10/30 15:00:39;;;;;;;;;;;13.80;99.90;;;;;;8347392;28;19983;-70
2023/10/30 15:04:40;;;;;;;;;;;13.80;99.90;;;;;;8342234;28;19947;-70
2023/10/30 15:08:42;;;;;;;;;;;13.80;99.90;;;;;;8344619;28;19924;-69
2023/10/30 15:12:44;;;;;;;;;;;13.80;99.90;;;;;;8328227;28;19928;-70
2023/10/30 15:16:45;;;;;;;;;;;13.70;99.90;;;;;;8343621;28;20516;-69
2023/10/30 15:20:47;;;;;;;;;;;13.70;99.90;;;;;;8346227;28;20457;-70
2023/10/30 15:24:49;;;;;;;;;;;13.70;99.90;;;;;;8323098;28;19929;-69
2023/10/30 15:28:51;;;;;;;;;;;13.60;99.90;;;;;;8327337;28;20321;-70
2023/10/30 15:32:53;;;;;;;;;;;13.60;99.90;;;;;;8345558;28;19983;-70
2023/10/30 15:36:55;;;;;;;;;;;13.60;99.90;;;;;;8345335;28;20015;-70
2023/10/30 15:40:56;;;;;;;;;;;13.60;99.90;;;;;;8347016;28;20017;-69
2023/10/30 15:44:58;;;;;;;;;;;13.50;99.90;;;;;;8344304;28;19967;-69
2023/10/30 15:49:00;;;;;;;;;;;13.50;99.90;;;;;;8349447;28;19928;-70
2023/10/30 15:53:02;;;;;;;;;;;13.50;99.90;;;;;;8347423;28;19929;-70
2023/10/30 15:57:08;;;;;;;;;;;13.50;99.90;;;;;;8357219;28;19932;-70
2023/10/30 16:01:15;;;;;;;;;;;13.50;99.90;;;;;;8348282;28;19925;-70
2023/10/30 16:05:17;;;;;;;;;;;13.40;99.90;;;;;;8343761;28;20430;-70
2023/10/30 16:09:18;;;;;;;;;;;13.40;99.90;;;;;;8343486;28;19982;-69
2023/10/30 16:13:20;;;;;;;;;;;13.40;99.90;;;;;;8355064;28;19929;-69
2023/10/30 16:17:25;;;;;;;;;;;13.40;99.90;;;;;;8336058;28;19971;-70
2023/10/30 16:21:26;;;;;;;;;;;13.40;99.90;;;;;;8350694;28;19929;-69
2023/10/30 16:25:29;;;;;;;;;;;13.40;99.90;;;;;;8353125;28;20007;-70
2023/10/30 16:29:30;;;;;;;;;;;13.40;99.90;;;;;;8353723;28;20280;-70
2023/10/30 16:33:32;;;;;;;;;;;13.30;99.90;;;;;;8353441;28;19925;-70
2023/10/30 16:37:34;;;;;;;;;;;13.30;99.90;;;;;;8351744;28;19929;-70
2023/10/30 16:41:36;;;;;;;;;;;13.30;99.90;;;;;;8353772;28;19929;-70
2023/10/30 16:45:38;;;;;;;;;;;13.30;99.90;;;;;;8354305;28;22890;-70
2023/10/30 16:49:39;;;;;;;;;;;13.20;99.90;;;;;;8347722;28;20708;-70
2023/10/30 16:53:41;;;;;;;;;;;13.20;99.90;;;;;;8350611;28;20346;-70
2023/10/30 16:57:43;;;;;;;;;;;13.20;99.90;;;;;;8352079;28;20366;-69
2023/10/30 17:01:44;;;;;;;;;;;13.20;99.90;;;;;;8352528;28;19925;-69
2023/10/30 17:05:46;;;;;;;;;;;13.20;99.90;;;;;;8350806;28;19932;-70
2023/10/30 17:09:48;;;;;;;;;;;13.20;99.90;;;;;;8330471;28;20214;-70
2023/10/30 17:13:50;;;;;;;;;;;13.20;99.90;;;;;;8341314;28;20023;-69
2023/10/30 17:17:52;;;;;;;;;;;13.10;99.90;;;;;;8349491;28;19983;-69
2023/10/30 17:21:53;;;;;;;;;;;13.10;99.90;;;;;;8353351;28;19925;-70
2023/10/30 17:25:55;;;;;;;;;;;13.10;99.90;;;;;;8351447;28;19931;-70
2023/10/30 17:29:57;;;;;;;;;;;13.10;99.90;;;;;;8333082;28;19929;-70
2023/10/30 17:33:58;;;;;;;;;;;13.10;99.90;;;;;;8350767;28;21730;-70
2023/10/30 17:38:00;;;;;;;;;;;13.10;99.90;;;;;;8349303;28;20434;-70
2023/10/30 17:42:01;;;;;;;;;;;13.10;99.90;;;;;;8351056;28;19960;-70
2023/10/30 17:46:03;;;;;;;;;;;13.00;99.90;;;;;;8349688;28;19928;-70
2023/10/30 17:50:05;;;;;;;;;;;13.00;99.90;;;;;;8352785;28;20368;-70
2023/10/30 17:54:07;;;;;;;;;;;13.00;99.90;;;;;;8332275;28;19983;-70
2023/10/30 17:58:11;;;;;;;;;;;13.00;99.90;;;;;;8332098;28;20410;-70
2023/10/30 18:02:13;;;;;;;;;;;13.00;99.90;;;;;;8351953;28;19925;-70
2023/10/30 18:06:15;;;;;;;;;;;12.90;99.90;;;;;;8348012;28;19932;-70
2023/10/30 18:10:17;;;;;;;;;;;12.90;99.90;;;;;;8352298;28;20024;-70
2023/10/30 18:14:18;;;;;;;;;;;12.90;99.90;;;;;;8350189;28;19926;-70
2023/10/30 18:18:20;;;;;;;;;;;12.90;99.90;;;;;;8334150;28;20011;-70
2023/10/30 18:22:22;;;;;;;;;;;12.90;99.90;;;;;;8348892;28;19928;-70
2023/10/30 18:26:24;;;;;;;;;;;12.90;99.90;;;;;;8351256;28;19975;-70
2023/10/30 18:30:26;;;;;;;;;;;12.90;99.90;;;;;;8348766;28;20407;-69
2023/10/30 18:34:28;;;;;;;;;;;12.90;99.90;;;;;;8348479;28;19929;-70
2023/10/30 18:38:29;;;;;;;;;;;12.90;99.90;;;;;;8350382;28;19974;-70
2023/10/30 18:42:31;;;;;;;;;;;12.80;99.90;;;;;;8358087;28;19932;-69
2023/10/30 18:46:33;;;;;;;;;;;12.80;99.90;;;;;;8341820;28;20500;-69
2023/10/30 18:50:35;;;;;;;;;;;12.70;99.90;;;;;;8344284;28;19932;-70
2023/10/30 18:54:37;;;;;;;;;;;12.70;99.90;;;;;;8344791;28;19924;-70
2023/10/30 18:58:39;;;;;;;;;;;12.70;99.90;;;;;;8348522;28;19978;-70
2023/10/30 19:02:40;;;;;;;;;;;12.70;99.90;;;;;;8345428;28;19970;-70
2023/10/30 19:06:42;;;;;;;;;;;12.70;99.90;;;;;;8316705;28;19933;-70
2023/10/30 19:10:44;;;;;;;;;;;12.70;99.90;;;;;;8344795;28;19928;-70
2023/10/30 19:14:45;;;;;;;;;;;12.70;99.90;;;;;;8338825;28;20007;-70
2023/10/30 19:18:47;;;;;;;;;;;12.60;99.90;;;;;;8344875;28;19924;-70
2023/10/30 19:22:48;;;;;;;;;;;12.60;99.90;;;;;;8344754;28;20411;-70
2023/10/30 19:26:50;;;;;;;;;;;12.60;99.90;;;;;;8353254;28;20303;-70
2023/10/30 19:30:52;;;;;;;;;;;12.50;99.90;;;;;;8347314;28;19929;-70
2023/10/30 19:34:53;;;;;;;;;;;12.50;99.90;;;;;;8344507;28;19947;-70
2023/10/30 19:38:55;;;;;;;;;;;12.50;99.90;;;;;;8345810;28;20311;-70
2023/10/30 19:42:57;;;;;;;;;;;12.60;99.90;;;;;;8345217;28;19979;-70
2023/10/30 19:46:58;;;;;;;;;;;12.60;99.90;;;;;;8342921;28;19933;-70
2023/10/30 19:51:00;;;;;;;;;;;12.50;99.90;;;;;;8347965;28;20312;-70
2023/10/30 19:55:02;;;;;;;;;;;12.60;99.90;;;;;;8345404;28;20023;-70
2023/10/30 19:59:04;;;;;;;;;;;12.50;99.90;;;;;;8347467;28;19979;-70
2023/10/30 20:03:05;;;;;;;;;;;12.50;99.90;;;;;;8347195;28;19936;-70
2023/10/30 20:07:07;;;;;;;;;;;12.50;99.90;;;;;;8330396;28;20342;-70
2023/10/30 20:11:09;;;;;;;;;;;12.50;99.90;;;;;;8347414;28;19960;-70
2023/10/30 20:15:10;;;;;;;;;;;12.50;99.90;;;;;;8343348;28;19936;-70
2023/10/30 20:19:12;;;;;;;;;;;12.40;99.90;;;;;;8348550;28;19972;-70
2023/10/30 20:23:14;;;;;;;;;;;12.40;99.90;;;;;;8346183;28;19940;-70
2023/10/30 20:27:15;;;;;;;;;;;12.40;99.90;;;;;;8347537;28;19932;-70
2023/10/30 20:31:17;;;;;;;;;;;12.40;99.90;;;;;;8345070;28;20016;-70
2023/10/30 20:35:19;;;;;;;;;;;12.40;99.90;;;;;;8344509;28;19924;-70
2023/10/30 20:39:22;;;;;;;;;;;12.40;99.90;;;;;;8339104;28;20429;-70
2023/10/30 20:43:26;;;;;;;;;;;12.30;99.90;;;;;;8339761;28;20023;-70
2023/10/30 20:47:27;;;;;;;;;;;12.30;99.90;;;;;;8318799;28;19932;-70
2023/10/30 20:51:29;;;;;;;;;;;12.30;99.90;;;;;;8298213;28;21270;-70
2023/10/30 20:55:31;;;;;;;;;;;12.30;99.90;;;;;;8335230;28;19929;-70
2023/10/30 20:59:32;;;;;;;;;;;12.30;99.90;;;;;;8340298;28;19929;-70
2023/10/30 21:03:34;;;;;;;;;;;12.30;99.90;;;;;;8325663;28;20027;-70
2023/10/30 21:07:36;;;;;;;;;;;12.30;99.90;;;;;;8341782;28;20396;-70
2023/10/30 21:11:37;;;;;;;;;;;12.30;99.90;;;;;;8348531;28;19928;-70
2023/10/30 21:15:39;;;;;;;;;;;12.30;99.90;;;;;;8352707;28;19974;-70
2023/10/30 21:19:40;;;;;;;;;;;12.20;99.90;;;;;;8355455;28;19940;-70
2023/10/30 21:23:42;;;;;;;;;;;12.20;99.90;;;;;;8352694;28;19994;-70
2023/10/30 21:27:44;;;;;;;;;;;12.20;99.90;;;;;;8354428;28;19955;-70
2023/10/30 21:31:46;;;;;;;;;;;12.20;99.90;;;;;;8335721;28;20396;-70
2023/10/30 21:35:48;;;;;;;;;;;12.20;99.90;;;;;;8351836;28;20281;-70
2023/10/30 21:39:49;;;;;;;;;;;12.20;99.90;;;;;;8353517;28;19971;-70
2023/10/30 21:43:51;;;;;;;;;;;12.20;99.90;;;;;;8353094;28;19959;-70
2023/10/30 21:47:53;;;;;;;;;;;12.20;99.90;;;;;;8348791;28;19931;-70
2023/10/30 21:51:54;;;;;;;;;;;12.20;99.90;;;;;;8352106;28;19928;-70
2023/10/30 21:55:56;;;;;;;;;;;12.10;99.90;;;;;;8354197;28;19951;-70
2023/10/30 21:59:58;;;;;;;;;;;12.10;99.90;;;;;;8351842;28;19925;-69
2023/10/30 22:04:00;;;;;;;;;;;12.00;99.90;;;;;;8358469;28;19971;-70
2023/10/30 22:08:02;;;;;;;;;;;11.90;99.90;;;;;;8358958;28;20384;-70
2023/10/30 22:12:03;;;;;;;;;;;11.70;99.90;;;;;;8360659;28;19925;-70
2023/10/30 22:16:06;;;;;;;;;;;11.50;99.90;;;;;;8367531;28;19925;-70
2023/10/30 22:20:08;;;;;;;;;;;11.40;99.90;;;;;;8355521;28;19928;-70
2023/10/30 22:24:10;;;;;;;;;;;11.30;99.90;;;;;;8358185;28;19931;-69
2023/10/30 22:28:11;;;;;;;;;;;11.30;99.90;;;;;;8358382;28;19925;-69
2023/10/30 22:32:15;;;;;;;;;;;11.30;99.90;;;;;;8358507;28;20229;-70
2023/10/30 22:36:20;;;;;;;;;;;11.30;99.90;;;;;;8358421;28;19932;-69
2023/10/30 22:40:21;;;;;;;;;;;11.20;99.90;;;;;;8334917;28;19929;-70
2023/10/30 22:44:23;;;;;;;;;;;11.20;99.90;;;;;;8359625;28;19925;-70
2023/10/30 22:48:25;;;;;;;;;;;11.20;99.90;;;;;;8354628;28;19931;-70
2023/10/30 22:52:26;;;;;;;;;;;11.10;99.90;;;;;;8357255;28;20320;-70
2023/10/30 22:56:28;;;;;;;;;;;11.10;99.90;;;;;;8359301;28;19925;-69
2023/10/30 23:00:30;;;;;;;;;;;11.10;99.90;;;;;;8354098;28;19924;-70
2023/10/30 23:04:31;;;;;;;;;;;11.00;99.90;;;;;;8356574;28;20296;-70
2023/10/30 23:08:33;;;;;;;;;;;11.00;99.90;;;;;;8354146;28;20370;-70
2023/10/30 23:12:35;;;;;;;;;;;11.00;99.90;;;;;;8341159;28;20250;-70
2023/10/30 23:16:36;;;;;;;;;;;11.00;99.90;;;;;;8357550;28;19931;-70
2023/10/30 23:20:38;;;;;;;;;;;10.90;99.90;;;;;;8348478;28;19924;-70
2023/10/30 23:24:40;;;;;;;;;;;10.90;99.90;;;;;;8355969;28;19940;-70
2023/10/30 23:28:42;;;;;;;;;;;10.90;99.90;;;;;;8353365;28;20244;-70